createdAt,value
2023-01-20T00:01:25.066Z,-0.30
2023-01-20T00:03:54.187Z,-0.31
2023-01-20T00:06:23.108Z,-0.35
2023-01-20T00:08:54.998Z,-0.36
2023-01-20T00:11:23.457Z,-0.36
2023-01-20T00:13:55.627Z,-0.31
2023-01-20T00:16:25.692Z,-0.32
2023-01-20T00:18:54.577Z,-0.30
2023-01-20T00:21:23.070Z,-0.32
2023-01-20T00:23:51.232Z,-0.37
2023-01-20T00:26:21.120Z,-0.39
2023-01-20T00:28:49.868Z,-0.38
2023-01-20T00:31:20.062Z,-0.37
2023-01-20T00:33:51.230Z,-0.39
2023-01-20T00:36:20.825Z,-0.37
2023-01-20T00:38:48.957Z,-0.36
2023-01-20T00:41:18.031Z,-0.30
2023-01-20T00:43:46.241Z,-0.27
2023-01-20T00:46:14.219Z,-0.26
2023-01-20T00:48:43.179Z,-0.21
2023-01-20T00:51:13.174Z,-0.18
2023-01-20T00:53:41.705Z,-0.19
2023-01-20T00:56:10.505Z,-0.16
2023-01-20T00:58:38.333Z,-0.16
2023-01-20T01:01:07.426Z,-0.14
2023-01-20T01:03:35.455Z,-0.15
2023-01-20T01:06:09.235Z,-0.15
2023-01-20T01:08:38.758Z,-0.17
2023-01-20T01:11:07.840Z,-0.18
2023-01-20T01:13:37.723Z,-0.19
2023-01-20T01:16:06.584Z,-0.19
2023-01-20T01:18:34.481Z,-0.20
2023-01-20T01:21:07.951Z,-0.20
2023-01-20T01:23:35.899Z,-0.19
2023-01-20T01:26:05.892Z,-0.22
2023-01-20T01:28:33.917Z,-0.24
2023-01-20T01:31:03.512Z,-0.25
2023-01-20T01:33:33.121Z,-0.26
2023-01-20T01:36:02.944Z,-0.25
2023-01-20T01:38:31.095Z,-0.25
2023-01-20T01:40:59.715Z,-0.23
2023-01-20T01:43:31.899Z,-0.22
2023-01-20T01:46:00.671Z,-0.18
2023-01-20T01:48:33.912Z,-0.15
2023-01-20T01:51:07.433Z,-0.13
2023-01-20T01:53:41.429Z,-0.11
2023-01-20T01:56:11.905Z,-0.05
2023-01-20T01:58:47.565Z,-0.04
2023-01-20T02:01:16.210Z,-0.06
2023-01-20T02:03:50.874Z,-0.06
2023-01-20T02:06:21.504Z,-0.10
2023-01-20T02:08:49.926Z,-0.17
2023-01-20T02:11:18.176Z,-0.19
2023-01-20T02:13:47.969Z,-0.23
2023-01-20T02:16:21.526Z,-0.26
2023-01-20T02:19:02.400Z,-0.28
2023-01-20T02:22:05.457Z,-0.27
2023-01-20T02:25:10.664Z,-0.26
2023-01-20T02:28:08.761Z,-0.25
2023-01-20T02:30:55.654Z,-0.27
2023-01-20T02:33:31.383Z,-0.27
2023-01-20T02:36:03.905Z,-0.28
2023-01-20T02:38:38.494Z,-0.24
2023-01-20T02:41:11.528Z,-0.21
2023-01-20T02:43:48.043Z,-0.18
2023-01-20T02:46:24.407Z,-0.18
2023-01-20T02:48:58.837Z,-0.14
2023-01-20T02:51:31.422Z,-0.12
2023-01-20T02:54:04.197Z,-0.12
2023-01-20T02:56:35.910Z,-0.12
2023-01-20T02:59:09.981Z,-0.09
2023-01-20T03:01:43.357Z,-0.07
2023-01-20T03:04:15.045Z,-0.06
2023-01-20T03:06:48.773Z,-0.05
2023-01-20T03:09:20.037Z,-0.05
2023-01-20T03:11:54.818Z,-0.02
2023-01-20T03:14:23.321Z,-0.02
2023-01-20T03:16:51.600Z,-0.01
2023-01-20T03:19:22.080Z,-0.01
2023-01-20T03:21:50.149Z,0.02
2023-01-20T03:24:18.070Z,0.02
2023-01-20T03:26:46.684Z,0.03
2023-01-20T03:29:16.121Z,0.03
2023-01-20T03:31:47.847Z,0.04
2023-01-20T03:34:23.108Z,0.03
2023-01-20T03:36:52.936Z,0.04
2023-01-20T03:39:22.205Z,0.05
2023-01-20T03:42:03.012Z,0.05
2023-01-20T03:44:39.284Z,0.04
2023-01-20T03:47:17.589Z,0.07
2023-01-20T03:49:55.608Z,0.03
2023-01-20T03:52:47.640Z,-0.03
2023-01-20T03:55:22.493Z,-0.07
2023-01-20T03:57:56.044Z,-0.15
2023-01-20T04:00:26.564Z,-0.13
2023-01-20T04:03:01.202Z,-0.12
2023-01-20T04:05:31.239Z,-0.09
2023-01-20T04:08:04.090Z,-0.10
2023-01-20T04:10:34.476Z,-0.08
2023-01-20T04:13:02.419Z,-0.06
2023-01-20T04:15:35.178Z,0.00
2023-01-20T04:18:13.950Z,0.00
2023-01-20T04:20:44.734Z,-0.03
2023-01-20T04:23:19.613Z,-0.02
2023-01-20T04:25:47.888Z,0.05
2023-01-20T04:28:15.786Z,0.00
2023-01-20T04:30:44.047Z,0.02
2023-01-20T04:33:14.181Z,0.04
2023-01-20T04:35:43.900Z,-0.01
2023-01-20T04:38:12.056Z,0.02
2023-01-20T04:40:40.069Z,0.02
2023-01-20T04:43:10.109Z,-0.03
2023-01-20T04:45:38.496Z,-0.04
2023-01-20T04:48:10.637Z,-0.01
2023-01-20T04:50:40.863Z,0.00
2023-01-20T04:53:13.743Z,0.06
2023-01-20T04:55:41.976Z,0.06
2023-01-20T04:58:10.750Z,0.07
2023-01-20T05:00:39.553Z,0.06
2023-01-20T05:03:07.988Z,0.09
2023-01-20T05:05:36.394Z,0.10
2023-01-20T05:08:05.218Z,0.10
2023-01-20T05:10:35.107Z,0.09
2023-01-20T05:13:03.387Z,0.08
2023-01-20T05:15:31.737Z,0.07
2023-01-20T05:17:59.814Z,0.05
2023-01-20T05:20:27.759Z,-0.01
2023-01-20T05:22:55.704Z,-0.03
2023-01-20T05:25:23.591Z,-0.03
2023-01-20T05:27:53.013Z,0.01
2023-01-20T05:30:21.374Z,0.00
2023-01-20T05:32:50.997Z,-0.02
2023-01-20T05:35:19.181Z,0.01
2023-01-20T05:37:47.719Z,0.00
2023-01-20T05:40:15.645Z,0.02
2023-01-20T05:42:43.480Z,0.06
2023-01-20T05:45:14.043Z,0.09
2023-01-20T05:47:42.704Z,0.09
2023-01-20T05:50:12.097Z,0.13
2023-01-20T05:52:40.575Z,0.10
2023-01-20T05:55:08.946Z,0.12
2023-01-20T05:57:36.849Z,0.12
2023-01-20T06:00:08.636Z,0.13
2023-01-20T06:02:38.290Z,0.11
2023-01-20T06:05:07.710Z,0.10
2023-01-20T06:07:36.760Z,0.10
2023-01-20T06:10:05.015Z,0.09
2023-01-20T06:12:33.177Z,0.09
2023-01-20T06:15:01.465Z,0.10
2023-01-20T06:17:29.730Z,0.07
2023-01-20T06:20:00.685Z,0.10
2023-01-20T06:22:29.117Z,0.10
2023-01-20T06:24:57.216Z,0.09
2023-01-20T06:27:25.703Z,0.08
2023-01-20T06:29:53.639Z,0.09
2023-01-20T06:32:22.114Z,0.08
2023-01-20T06:34:50.293Z,0.08
2023-01-20T06:37:19.914Z,0.06
2023-01-20T06:39:48.145Z,0.04
2023-01-20T06:42:16.368Z,0.03
2023-01-20T06:44:44.392Z,0.00
2023-01-20T06:47:13.069Z,-0.05
2023-01-20T06:49:41.523Z,-0.03
2023-01-20T06:52:09.787Z,-0.06
2023-01-20T06:54:39.085Z,-0.07
2023-01-20T06:57:07.814Z,-0.04
2023-01-20T06:59:35.732Z,-0.05
2023-01-20T07:02:03.816Z,-0.04
2023-01-20T07:04:32.173Z,0.02
2023-01-20T07:07:00.491Z,0.03
2023-01-20T07:09:28.435Z,0.04
2023-01-20T07:11:58.223Z,-0.02
2023-01-20T07:14:26.246Z,-0.01
2023-01-20T07:16:54.792Z,0.07
2023-01-20T07:19:25.107Z,0.05
2023-01-20T07:21:54.425Z,0.03
2023-01-20T07:24:24.524Z,0.06
2023-01-20T07:26:56.073Z,0.09
2023-01-20T07:29:52.910Z,0.06
2023-01-20T07:32:25.716Z,0.05
2023-01-20T07:34:55.526Z,0.13
2023-01-20T07:37:27.160Z,0.07
2023-01-20T07:39:57.253Z,0.08
2023-01-20T07:42:30.822Z,0.02
2023-01-20T07:45:03.396Z,0.02
2023-01-20T07:47:33.560Z,0.00
2023-01-20T07:50:02.819Z,0.01
2023-01-20T07:52:33.473Z,-0.04
2023-01-20T07:55:02.922Z,0.02
2023-01-20T07:57:35.462Z,0.06
2023-01-20T08:00:10.539Z,0.12
2023-01-20T08:02:43.495Z,0.09
2023-01-20T08:05:16.450Z,0.14
2023-01-20T08:07:52.921Z,0.11
2023-01-20T08:10:29.239Z,0.16
2023-01-20T08:13:14.676Z,0.13
2023-01-20T08:15:49.492Z,0.18
2023-01-20T08:18:39.304Z,0.25
2023-01-20T08:21:21.717Z,0.29
2023-01-20T08:24:09.045Z,0.30
2023-01-20T08:26:48.544Z,0.33
2023-01-20T08:29:25.568Z,0.37
2023-01-20T08:32:08.286Z,0.42
2023-01-20T08:34:40.530Z,0.42
2023-01-20T08:37:10.874Z,0.42
2023-01-20T08:39:42.376Z,0.45
2023-01-20T08:42:12.335Z,0.43
2023-01-20T08:44:43.894Z,0.48
2023-01-20T08:47:15.641Z,0.51
2023-01-20T08:49:46.788Z,0.54
2023-01-20T08:52:17.844Z,0.53
2023-01-20T08:54:48.970Z,0.58
2023-01-20T08:57:20.833Z,0.60
2023-01-20T08:59:51.410Z,0.68
2023-01-20T09:02:27.266Z,0.72
2023-01-20T09:04:58.563Z,0.72
2023-01-20T09:07:27.718Z,0.76
2023-01-20T09:09:56.242Z,0.83
2023-01-20T09:12:25.236Z,0.86
2023-01-20T09:14:53.561Z,0.84
2023-01-20T09:17:23.352Z,0.92
2023-01-20T09:19:52.455Z,0.92
2023-01-20T09:22:20.916Z,0.90
2023-01-20T09:24:49.261Z,1.02
2023-01-20T09:27:18.326Z,1.03
2023-01-20T09:29:46.488Z,1.03
2023-01-20T09:32:15.931Z,1.05
2023-01-20T09:34:46.245Z,1.07
2023-01-20T09:37:31.971Z,1.10
2023-01-20T09:40:17.776Z,1.15
2023-01-20T09:43:24.538Z,1.20
2023-01-20T09:45:57.828Z,1.25
2023-01-20T09:48:54.453Z,1.33
2023-01-20T09:51:49.543Z,1.34
2023-01-20T09:54:25.128Z,1.43
2023-01-20T09:56:56.057Z,1.36
2023-01-20T09:59:28.002Z,1.30
2023-01-20T10:02:00.974Z,1.37
2023-01-20T10:04:38.104Z,1.38
2023-01-20T10:07:13.218Z,1.31
2023-01-20T10:09:47.328Z,1.43
2023-01-20T10:12:21.539Z,1.47
2023-01-20T10:14:55.530Z,1.57
2023-01-20T10:17:29.066Z,1.63
2023-01-20T10:20:04.076Z,1.74
2023-01-20T10:22:38.687Z,1.81
2023-01-20T10:25:13.444Z,1.88
2023-01-20T10:27:51.909Z,1.85
2023-01-20T10:30:24.963Z,1.94
2023-01-20T10:33:00.355Z,1.86
2023-01-20T10:35:32.241Z,1.87
2023-01-20T10:38:02.489Z,1.92
2023-01-20T10:40:37.660Z,1.91
2023-01-20T10:43:13.049Z,1.91
2023-01-20T10:45:59.312Z,1.95
2023-01-20T10:48:49.317Z,1.91
2023-01-20T10:51:24.577Z,1.89
2023-01-20T10:54:03.629Z,1.89
2023-01-20T10:56:41.059Z,1.83
2023-01-20T10:59:16.198Z,1.77
2023-01-20T11:01:56.222Z,1.76
2023-01-20T11:04:29.063Z,1.68
2023-01-20T11:06:59.835Z,1.70
2023-01-20T11:09:35.701Z,1.76
2023-01-20T11:12:07.747Z,1.92
2023-01-20T11:14:36.544Z,2.03
2023-01-20T11:17:08.026Z,2.23
2023-01-20T11:19:51.756Z,2.50
2023-01-20T11:22:32.312Z,2.76
2023-01-20T11:25:04.134Z,2.90
2023-01-20T11:27:37.707Z,3.08
2023-01-20T11:30:09.653Z,3.21
2023-01-20T11:32:40.376Z,3.27
2023-01-20T11:35:21.949Z,3.32
2023-01-20T11:37:50.010Z,3.50
2023-01-20T11:40:23.378Z,3.61
2023-01-20T11:42:53.091Z,3.61
2023-01-20T11:45:27.539Z,3.61
2023-01-20T11:48:05.036Z,3.63
2023-01-20T11:50:41.967Z,3.57
2023-01-20T11:53:17.966Z,3.45
2023-01-20T11:55:52.039Z,3.30
2023-01-20T11:58:21.993Z,3.34
2023-01-20T12:00:53.448Z,3.31
2023-01-20T12:03:45.695Z,3.37
2023-01-20T12:06:19.032Z,3.46
2023-01-20T12:08:51.924Z,3.57
2023-01-20T12:11:26.532Z,3.57
2023-01-20T12:14:23.397Z,3.45
2023-01-20T12:16:58.736Z,3.36
2023-01-20T12:19:43.079Z,3.38
2023-01-20T12:22:17.678Z,3.35
2023-01-20T12:25:10.624Z,3.21
2023-01-20T12:27:48.268Z,3.17
2023-01-20T12:30:45.477Z,3.12
2023-01-20T12:33:26.045Z,3.09
2023-01-20T12:36:26.129Z,2.94
2023-01-20T12:39:05.612Z,2.91
2023-01-20T12:41:50.685Z,2.84
2023-01-20T12:44:25.121Z,2.87
2023-01-20T12:47:04.968Z,2.83
2023-01-20T12:50:01.865Z,2.85
2023-01-20T12:52:45.168Z,2.80
2023-01-20T12:55:25.707Z,2.75
2023-01-20T12:58:08.548Z,2.77
2023-01-20T13:01:17.265Z,2.81
2023-01-20T13:04:12.850Z,2.84
2023-01-20T13:06:58.369Z,2.88
2023-01-20T13:09:40.979Z,2.90
2023-01-20T13:12:26.703Z,2.87
2023-01-20T13:14:59.912Z,2.90
2023-01-20T13:17:40.101Z,2.94
2023-01-20T13:20:17.753Z,2.94
2023-01-20T13:22:46.089Z,2.92
2023-01-20T13:25:17.419Z,2.88
2023-01-20T13:27:47.765Z,2.89
2023-01-20T13:30:43.020Z,2.89
2023-01-20T13:33:33.328Z,2.91
2023-01-20T13:36:02.355Z,2.88
2023-01-20T13:38:35.292Z,2.88
2023-01-20T13:41:06.121Z,2.93
2023-01-20T13:43:49.371Z,2.87
2023-01-20T13:46:49.258Z,2.80
2023-01-20T13:49:31.309Z,2.81
2023-01-20T13:51:59.395Z,2.83
2023-01-20T13:54:49.776Z,2.84
2023-01-20T13:57:38.022Z,2.84
2023-01-20T14:00:17.941Z,2.86
2023-01-20T14:02:48.056Z,2.89
2023-01-20T14:08:31.558Z,2.85
2023-01-20T14:11:12.067Z,2.83
2023-01-20T14:13:40.377Z,2.82
2023-01-20T14:16:20.413Z,2.74
2023-01-20T14:18:49.838Z,2.69
2023-01-20T14:21:39.923Z,2.63
2023-01-20T14:24:23.080Z,2.66
2023-01-20T14:26:51.629Z,2.76
2023-01-20T14:29:21.874Z,2.88
2023-01-20T14:31:50.187Z,2.95
2023-01-20T14:34:26.905Z,3.10
2023-01-20T14:36:58.888Z,3.15
2023-01-20T14:39:29.204Z,3.22
2023-01-20T14:41:58.789Z,3.27
2023-01-20T14:44:28.923Z,3.30
2023-01-20T14:46:59.537Z,3.34
2023-01-20T14:49:33.517Z,3.30
2023-01-20T14:52:04.206Z,3.22
2023-01-20T14:54:42.699Z,3.22
2023-01-20T14:57:24.111Z,3.24
2023-01-20T15:00:14.527Z,3.10
2023-01-20T15:03:01.053Z,3.04
2023-01-20T15:05:38.074Z,2.92
2023-01-20T15:08:19.050Z,2.88
2023-01-20T15:10:47.037Z,2.77
2023-01-20T15:13:26.781Z,2.72
2023-01-20T15:16:08.211Z,2.67
2023-01-20T15:18:36.816Z,2.67
2023-01-20T15:21:27.006Z,2.61
2023-01-20T15:23:57.189Z,2.55
2023-01-20T15:26:28.668Z,2.53
2023-01-20T15:28:58.179Z,2.51
2023-01-20T15:31:26.509Z,2.47
2023-01-20T15:33:54.621Z,2.44
2023-01-20T15:36:25.906Z,2.40
2023-01-20T15:38:54.238Z,2.32
2023-01-20T15:41:24.374Z,2.26
2023-01-20T15:43:52.854Z,2.18
2023-01-20T15:46:21.099Z,2.11
2023-01-20T15:48:49.203Z,2.03
2023-01-20T15:51:19.589Z,1.97
2023-01-20T15:53:48.721Z,1.88
2023-01-20T15:56:21.297Z,1.76
2023-01-20T15:58:52.020Z,1.75
2023-01-20T16:01:24.222Z,1.67
2023-01-20T16:03:52.902Z,1.59
2023-01-20T16:06:24.295Z,1.53
2023-01-20T16:08:52.978Z,1.47
2023-01-20T16:11:21.610Z,1.41
2023-01-20T16:13:50.887Z,1.37
2023-01-20T16:16:21.085Z,1.33
2023-01-20T16:18:49.456Z,1.26
2023-01-20T16:21:19.602Z,1.22
2023-01-20T16:23:47.720Z,1.15
2023-01-20T16:26:22.678Z,1.11
2023-01-20T16:28:54.147Z,1.05
2023-01-20T16:31:23.357Z,1.00
2023-01-20T16:33:52.060Z,0.99
2023-01-20T16:36:22.406Z,0.96
2023-01-20T16:38:51.967Z,0.95
2023-01-20T16:41:24.024Z,0.91
2023-01-20T16:43:56.550Z,0.93
2023-01-20T16:46:29.031Z,0.90
2023-01-20T16:48:59.463Z,0.93
2023-01-20T16:51:28.168Z,0.91
2023-01-20T16:53:57.223Z,0.86
2023-01-20T16:56:27.822Z,0.82
2023-01-20T16:58:58.856Z,0.83
2023-01-20T17:01:27.646Z,0.81
2023-01-20T17:03:57.624Z,0.76
2023-01-20T17:06:27.390Z,0.74
2023-01-20T17:08:57.469Z,0.73
2023-01-20T17:11:28.123Z,0.69
2023-01-20T17:13:57.888Z,0.64
2023-01-20T17:16:27.130Z,0.59
2023-01-20T17:18:58.736Z,0.55
2023-01-20T17:21:28.845Z,0.53
2023-01-20T17:24:00.787Z,0.52
2023-01-20T17:26:29.527Z,0.51
2023-01-20T17:29:02.305Z,0.45
2023-01-20T17:31:31.944Z,0.39
2023-01-20T17:34:00.562Z,0.36
2023-01-20T17:36:30.106Z,0.33
2023-01-20T17:38:59.131Z,0.31
2023-01-20T17:41:27.503Z,0.30
2023-01-20T17:43:55.736Z,0.26
2023-01-20T17:46:27.720Z,0.26
2023-01-20T17:48:57.596Z,0.24
2023-01-20T17:51:26.994Z,0.18
2023-01-20T17:53:55.030Z,0.17
2023-01-20T17:56:24.205Z,0.12
2023-01-20T17:58:52.134Z,0.12
2023-01-20T18:01:22.704Z,0.05
2023-01-20T18:03:53.890Z,0.00
2023-01-20T18:06:23.291Z,-0.03
2023-01-20T18:08:52.878Z,-0.03
2023-01-20T18:11:23.031Z,-0.02
2023-01-20T18:13:52.784Z,0.02
2023-01-20T18:16:23.731Z,0.02
2023-01-20T18:18:53.657Z,0.00
2023-01-20T18:21:23.394Z,0.03
2023-01-20T18:23:53.129Z,0.01
2023-01-20T18:26:23.833Z,-0.01
2023-01-20T18:28:55.160Z,-0.01
2023-01-20T18:31:25.520Z,-0.02
2023-01-20T18:33:56.981Z,-0.06
2023-01-20T18:36:27.080Z,-0.13
2023-01-20T18:38:56.873Z,-0.11
2023-01-20T18:41:25.758Z,-0.13
2023-01-20T18:43:54.278Z,-0.17
2023-01-20T18:46:25.348Z,-0.18
2023-01-20T18:48:55.539Z,-0.18
2023-01-20T18:51:26.301Z,-0.21
2023-01-20T18:53:56.750Z,-0.23
2023-01-20T18:56:26.041Z,-0.29
2023-01-20T18:58:55.466Z,-0.28
2023-01-20T19:01:25.359Z,-0.26
2023-01-20T19:03:55.327Z,-0.26
2023-01-20T19:06:25.643Z,-0.26
2023-01-20T19:08:54.196Z,-0.25
2023-01-20T19:11:23.768Z,-0.32
2023-01-20T19:13:54.082Z,-0.32
2023-01-20T19:16:24.132Z,-0.31
2023-01-20T19:18:54.986Z,-0.33
2023-01-20T19:21:24.528Z,-0.36
2023-01-20T19:23:53.993Z,-0.38
2023-01-20T19:26:22.851Z,-0.40
2023-01-20T19:28:58.287Z,-0.42
2023-01-20T19:31:26.297Z,-0.44
2023-01-20T19:33:56.061Z,-0.45
2023-01-20T19:36:24.859Z,-0.47
2023-01-20T19:38:53.004Z,-0.45
2023-01-20T19:41:23.126Z,-0.49
2023-01-20T19:43:55.787Z,-0.51
2023-01-20T19:46:25.356Z,-0.52
2023-01-20T19:48:56.447Z,-0.53
2023-01-20T19:51:25.239Z,-0.56
2023-01-20T19:53:58.575Z,-0.58
2023-01-20T19:56:28.753Z,-0.61
2023-01-20T19:58:56.885Z,-0.62
2023-01-20T20:01:27.445Z,-0.67
2023-01-20T20:03:58.216Z,-0.69
2023-01-20T20:06:28.384Z,-0.67
2023-01-20T20:08:59.418Z,-0.68
2023-01-20T20:11:34.039Z,-0.68
2023-01-20T20:14:03.616Z,-0.70
2023-01-20T20:16:33.963Z,-0.77
2023-01-20T20:19:04.153Z,-0.80
2023-01-20T20:21:32.335Z,-0.79
2023-01-20T20:24:01.634Z,-0.62
2023-01-20T20:26:32.103Z,-0.73
2023-01-20T20:29:01.348Z,-0.78
2023-01-20T20:31:30.009Z,-0.76
2023-01-20T20:33:59.278Z,-0.82
2023-01-20T20:36:31.132Z,-0.86
2023-01-20T20:39:00.507Z,-0.87
2023-01-20T20:41:31.771Z,-0.88
2023-01-20T20:44:00.896Z,-0.86
2023-01-20T20:46:30.607Z,-0.84
2023-01-20T20:49:01.470Z,-0.87
2023-01-20T20:51:32.728Z,-0.85
2023-01-20T20:54:02.863Z,-0.86
2023-01-20T20:56:32.874Z,-0.88
2023-01-20T20:59:03.738Z,-0.88
2023-01-20T21:01:33.942Z,-0.83
2023-01-20T21:04:02.901Z,-0.85
2023-01-20T21:06:33.130Z,-0.90
2023-01-20T21:09:01.568Z,-0.89
2023-01-20T21:11:30.362Z,-0.87
2023-01-20T21:13:59.102Z,-0.85
2023-01-20T21:16:28.067Z,-0.86
2023-01-20T21:18:57.393Z,-0.88
2023-01-20T21:21:26.005Z,-0.83
2023-01-20T21:23:57.154Z,-0.86
2023-01-20T21:26:29.634Z,-0.84
2023-01-20T21:29:00.229Z,-0.85
2023-01-20T21:31:28.514Z,-0.84
2023-01-20T21:33:58.384Z,-0.82
2023-01-20T21:36:27.732Z,-0.78
2023-01-20T21:38:57.434Z,-0.71
2023-01-20T21:41:25.357Z,-0.66
2023-01-20T21:44:11.041Z,-0.62
2023-01-20T21:46:41.761Z,-0.67
2023-01-20T21:49:27.800Z,-0.64
2023-01-20T21:52:13.903Z,-0.64
2023-01-20T21:54:45.777Z,-0.62
2023-01-20T21:57:14.680Z,-0.60
2023-01-20T21:59:43.227Z,-0.59
2023-01-20T22:02:13.649Z,-0.58
2023-01-20T22:04:41.865Z,-0.56
2023-01-20T22:07:10.402Z,-0.61
2023-01-20T22:09:38.704Z,-0.64
2023-01-20T22:12:08.399Z,-0.62
2023-01-20T22:14:36.335Z,-0.64
2023-01-20T22:17:04.469Z,-0.67
2023-01-20T22:19:32.936Z,-0.67
2023-01-20T22:22:01.256Z,-0.66
2023-01-20T22:24:30.018Z,-0.68
2023-01-20T22:26:58.307Z,-0.68
2023-01-20T22:29:27.708Z,-0.66
2023-01-20T22:31:57.762Z,-0.67
2023-01-20T22:34:26.279Z,-0.71
2023-01-20T22:36:56.204Z,-0.72
2023-01-20T22:39:24.644Z,-0.73
2023-01-20T22:41:52.881Z,-0.73
2023-01-20T22:44:23.045Z,-0.75
2023-01-20T22:46:53.214Z,-0.73
2023-01-20T22:49:21.162Z,-0.72
2023-01-20T22:51:49.136Z,-0.71
2023-01-20T22:54:17.535Z,-0.70
2023-01-20T22:56:45.440Z,-0.69
2023-01-20T22:59:14.248Z,-0.71
2023-01-20T23:01:42.614Z,-0.69
2023-01-20T23:04:12.160Z,-0.67
2023-01-20T23:06:41.016Z,-0.67
2023-01-20T23:09:12.292Z,-0.69
2023-01-20T23:11:41.196Z,-0.65
2023-01-20T23:14:12.962Z,-0.68
2023-01-20T23:16:42.370Z,-0.69
2023-01-20T23:19:13.691Z,-0.66
2023-01-20T23:21:57.988Z,-0.70
2023-01-20T23:24:26.330Z,-0.69
2023-01-20T23:26:54.723Z,-0.70
2023-01-20T23:29:23.491Z,-0.71
2023-01-20T23:31:51.929Z,-0.73
2023-01-20T23:34:21.847Z,-0.75
2023-01-20T23:36:50.726Z,-0.76
2023-01-20T23:39:19.194Z,-0.77
2023-01-20T23:41:47.654Z,-0.76
2023-01-20T23:44:16.635Z,-0.74
2023-01-20T23:46:45.091Z,-0.76
2023-01-20T23:49:13.424Z,-0.77
2023-01-20T23:51:43.770Z,-0.78
2023-01-20T23:54:13.496Z,-0.77
2023-01-20T23:56:41.974Z,-0.77
2023-01-20T23:59:10.439Z,-0.78
